sensor_id;sensor_type;location;lat;lon;timestamp;pressure;altitude;pressure_sealevel;temperature;humidity
30873;BME280;17579;42.690;2.586;2024-02-14T00:00:28;97792.91;;;13.63;41.18
30873;BME280;17579;42.690;2.586;2024-02-14T00:02:53;97796.28;;;13.65;40.87
30873;BME280;17579;42.690;2.586;2024-02-14T00:05:27;97798.38;;;13.61;40.94
30873;BME280;17579;42.690;2.586;2024-02-14T00:07:54;97791.63;;;13.67;40.98
30873;BME280;17579;42.690;2.586;2024-02-14T00:10:19;97796.78;;;13.68;40.90
30873;BME280;17579;42.690;2.586;2024-02-14T00:12:47;97793.16;;;13.69;40.34
30873;BME280;17579;42.690;2.586;2024-02-14T00:15:19;97796.94;;;13.67;40.41
30873;BME280;17579;42.690;2.586;2024-02-14T00:17:47;97804.09;;;13.66;40.26
30873;BME280;17579;42.690;2.586;2024-02-14T00:20:18;97799.91;;;13.64;40.26
30873;BME280;17579;42.690;2.586;2024-02-14T00:22:45;97804.25;;;13.65;40.06
30873;BME280;17579;42.690;2.586;2024-02-14T00:25:10;97805.06;;;13.65;39.78
30873;BME280;17579;42.690;2.586;2024-02-14T00:27:48;97816.16;;;13.61;40.17
30873;BME280;17579;42.690;2.586;2024-02-14T00:30:17;97810.53;;;13.64;39.92
30873;BME280;17579;42.690;2.586;2024-02-14T00:32:43;97810.53;;;13.64;39.80
30873;BME280;17579;42.690;2.586;2024-02-14T00:35:17;97807.88;;;13.64;40.00
30873;BME280;17579;42.690;2.586;2024-02-14T00:37:43;97810.53;;;13.64;39.70
30873;BME280;17579;42.690;2.586;2024-02-14T00:40:14;97820.47;;;13.62;39.88
30873;BME280;17579;42.690;2.586;2024-02-14T00:43:10;97815.63;;;13.57;40.08
30873;BME280;17579;42.690;2.586;2024-02-14T00:45:35;97816.00;;;13.62;39.44
30873;BME280;17579;42.690;2.586;2024-02-14T00:48:03;97822.31;;;13.61;39.55
30873;BME280;17579;42.690;2.586;2024-02-14T00:50:29;97818.97;;;13.59;39.29
30873;BME280;17579;42.690;2.586;2024-02-14T00:53:05;97825.72;;;13.54;39.30
30873;BME280;17579;42.690;2.586;2024-02-14T00:55:31;97834.94;;;13.59;39.27
30873;BME280;17579;42.690;2.586;2024-02-14T00:57:57;97833.09;;;13.60;38.85
30873;BME280;17579;42.690;2.586;2024-02-14T01:00:23;97838.41;;;13.60;39.10
30873;BME280;17579;42.690;2.586;2024-02-14T01:02:48;97837.59;;;13.59;39.14
30873;BME280;17579;42.690;2.586;2024-02-14T01:05:27;97843.06;;;13.58;38.95
30873;BME280;17579;42.690;2.586;2024-02-14T01:07:53;97837.72;;;13.58;39.06
30873;BME280;17579;42.690;2.586;2024-02-14T01:10:19;97831.41;;;13.59;38.96
30873;BME280;17579;42.690;2.586;2024-02-14T01:12:44;97831.41;;;13.59;39.08
30873;BME280;17579;42.690;2.586;2024-02-14T01:15:10;97836.41;;;13.62;38.83
30873;BME280;17579;42.690;2.586;2024-02-14T01:17:43;97836.31;;;13.63;38.65
30873;BME280;17579;42.690;2.586;2024-02-14T01:20:14;97838.25;;;13.61;38.65
30873;BME280;17579;42.690;2.586;2024-02-14T01:22:49;97840.59;;;13.64;38.05
30873;BME280;17579;42.690;2.586;2024-02-14T01:25:17;97847.59;;;13.65;38.34
30873;BME280;17579;42.690;2.586;2024-02-14T01:27:43;97849.44;;;13.65;37.90
30873;BME280;17579;42.690;2.586;2024-02-14T01:30:20;97849.44;;;13.65;38.17
30873;BME280;17579;42.690;2.586;2024-02-14T01:32:52;97849.72;;;13.62;37.91
30873;BME280;17579;42.690;2.586;2024-02-14T01:35:26;97843.97;;;13.66;37.80
30873;BME280;17579;42.690;2.586;2024-02-14T01:37:52;97856.84;;;13.61;37.96
30873;BME280;17579;42.690;2.586;2024-02-14T01:40:19;97863.47;;;13.57;37.77
30873;BME280;17579;42.690;2.586;2024-02-14T01:42:51;97855.94;;;13.52;38.45
30873;BME280;17579;42.690;2.586;2024-02-14T01:45:17;97860.72;;;13.49;38.74
30873;BME280;17579;42.690;2.586;2024-02-14T01:47:43;97856.25;;;13.49;38.98
30873;BME280;17579;42.690;2.586;2024-02-14T01:50:18;97863.66;;;13.46;38.98
30873;BME280;17579;42.690;2.586;2024-02-14T01:52:49;97866.16;;;13.47;39.37
30873;BME280;17579;42.690;2.586;2024-02-14T01:55:16;97863.66;;;13.46;39.45
30873;BME280;17579;42.690;2.586;2024-02-14T01:57:45;97865.09;;;13.40;39.55
30873;BME280;17579;42.690;2.586;2024-02-14T02:00:20;97862.72;;;13.37;39.31
30873;BME280;17579;42.690;2.586;2024-02-14T02:02:49;97840.91;;;13.33;39.23
30873;BME280;17579;42.690;2.586;2024-02-14T02:05:17;97836.56;;;13.32;39.23
30873;BME280;17579;42.690;2.586;2024-02-14T02:07:47;97841.75;;;13.34;38.69
30873;BME280;17579;42.690;2.586;2024-02-14T02:10:14;97846.13;;;13.35;38.86
30873;BME280;17579;42.690;2.586;2024-02-14T02:12:45;97846.78;;;13.37;38.50
30873;BME280;17579;42.690;2.586;2024-02-14T02:15:11;97845.00;;;13.38;38.41
30873;BME280;17579;42.690;2.586;2024-02-14T02:17:41;97830.16;;;13.35;38.53
30873;BME280;17579;42.690;2.586;2024-02-14T02:20:13;97833.78;;;13.34;38.74
30873;BME280;17579;42.690;2.586;2024-02-14T02:22:45;97831.00;;;13.36;38.58
30873;BME280;17579;42.690;2.586;2024-02-14T02:25:10;97831.69;;;13.38;38.43
30873;BME280;17579;42.690;2.586;2024-02-14T02:27:44;97829.88;;;13.38;38.37
30873;BME280;17579;42.690;2.586;2024-02-14T02:30:10;97825.53;;;13.37;38.28
30873;BME280;17579;42.690;2.586;2024-02-14T02:32:42;97823.88;;;13.36;38.34
30873;BME280;17579;42.690;2.586;2024-02-14T02:35:11;97829.88;;;13.38;38.74
30873;BME280;17579;42.690;2.586;2024-02-14T02:37:40;97824.69;;;13.37;38.28
30873;BME280;17579;42.690;2.586;2024-02-14T02:40:05;97812.41;;;13.36;38.32
30873;BME280;17579;42.690;2.586;2024-02-14T02:42:34;97806.94;;;13.37;38.29
30873;BME280;17579;42.690;2.586;2024-02-14T02:45:03;97809.03;;;13.33;38.53
30873;BME280;17579;42.690;2.586;2024-02-14T02:47:40;97809.03;;;13.33;38.31
30873;BME280;17579;42.690;2.586;2024-02-14T02:50:06;97800.22;;;13.33;38.28
30873;BME280;17579;42.690;2.586;2024-02-14T02:52:33;97807.34;;;13.32;38.13
30873;BME280;17579;42.690;2.586;2024-02-14T02:54:59;97804.53;;;13.34;38.10
30873;BME280;17579;42.690;2.586;2024-02-14T02:57:33;97799.22;;;13.34;37.99
30873;BME280;17579;42.690;2.586;2024-02-14T03:00:09;97788.91;;;13.31;38.32
30873;BME280;17579;42.690;2.586;2024-02-14T03:02:38;97782.78;;;13.30;38.16
30873;BME280;17579;42.690;2.586;2024-02-14T03:05:10;97786.41;;;13.29;37.92
30873;BME280;17579;42.690;2.586;2024-02-14T03:07:41;97792.16;;;13.25;38.10
30873;BME280;17579;42.690;2.586;2024-02-14T03:10:13;97781.38;;;13.26;38.06
30873;BME280;17579;42.690;2.586;2024-02-14T03:12:44;97783.50;;;13.23;38.04
30873;BME280;17579;42.690;2.586;2024-02-14T03:15:12;97775.16;;;13.17;38.27
30873;BME280;17579;42.690;2.586;2024-02-14T03:17:39;97782.97;;;13.19;37.99
30873;BME280;17579;42.690;2.586;2024-02-14T03:20:13;97778.38;;;13.11;38.39
30873;BME280;17579;42.690;2.586;2024-02-14T03:22:43;97786.66;;;13.08;38.29
30873;BME280;17579;42.690;2.586;2024-02-14T03:25:20;97782.47;;;13.06;38.31
30873;BME280;17579;42.690;2.586;2024-02-14T03:27:48;97785.97;;;13.06;38.47
30873;BME280;17579;42.690;2.586;2024-02-14T03:30:18;97778.84;;;13.07;38.42
30873;BME280;17579;42.690;2.586;2024-02-14T03:32:47;97786.34;;;13.11;38.59
30873;BME280;17579;42.690;2.586;2024-02-14T03:35:13;97782.41;;;13.15;38.61
30873;BME280;17579;42.690;2.586;2024-02-14T03:37:46;97783.28;;;13.16;38.31
30873;BME280;17579;42.690;2.586;2024-02-14T03:40:18;97775.81;;;13.20;38.65
30873;BME280;17579;42.690;2.586;2024-02-14T03:42:47;97781.13;;;13.20;38.45
30873;BME280;17579;42.690;2.586;2024-02-14T03:45:19;97781.97;;;13.20;38.54
30873;BME280;17579;42.690;2.586;2024-02-14T03:47:46;97783.81;;;13.20;38.65
30873;BME280;17579;42.690;2.586;2024-02-14T03:50:11;97783.81;;;13.20;38.81
30873;BME280;17579;42.690;2.586;2024-02-14T03:52:39;97781.97;;;13.20;38.54
30873;BME280;17579;42.690;2.586;2024-02-14T03:55:05;97788.13;;;13.21;38.72
30873;BME280;17579;42.690;2.586;2024-02-14T03:57:33;97788.97;;;13.21;38.62
30873;BME280;17579;42.690;2.586;2024-02-14T04:00:04;97800.97;;;13.25;38.87
30873;BME280;17579;42.690;2.586;2024-02-14T04:02:36;97794.13;;;13.23;38.56
30873;BME280;17579;42.690;2.586;2024-02-14T04:05:05;97801.94;;;13.24;38.51
30873;BME280;17579;42.690;2.586;2024-02-14T04:07:32;97801.94;;;13.24;38.61
30873;BME280;17579;42.690;2.586;2024-02-14T04:09:59;97795.25;;;13.20;38.71
30873;BME280;17579;42.690;2.586;2024-02-14T04:12:25;97801.00;;;13.15;38.88
30873;BME280;17579;42.690;2.586;2024-02-14T04:14:59;97799.47;;;13.13;38.84
30873;BME280;17579;42.690;2.586;2024-02-14T04:17:33;97802.84;;;13.15;39.04
30873;BME280;17579;42.690;2.586;2024-02-14T04:22:48;97814.59;;;13.12;39.00
30873;BME280;17579;42.690;2.586;2024-02-14T04:25:14;97807.31;;;13.14;38.94
30873;BME280;17579;42.690;2.586;2024-02-14T04:27:58;97806.78;;;13.11;38.74
30873;BME280;17579;42.690;2.586;2024-02-14T04:30:35;97810.97;;;13.13;38.77
30873;BME280;17579;42.690;2.586;2024-02-14T04:33:06;97819.75;;;13.14;38.99
30873;BME280;17579;42.690;2.586;2024-02-14T04:35:38;97812.22;;;13.09;39.02
30873;BME280;17579;42.690;2.586;2024-02-14T04:38:04;97812.91;;;13.11;38.74
30873;BME280;17579;42.690;2.586;2024-02-14T04:40:38;97815.19;;;13.06;39.28
30873;BME280;17579;42.690;2.586;2024-02-14T04:43:07;97817.47;;;12.91;39.32
30873;BME280;17579;42.690;2.586;2024-02-14T04:45:33;97810.91;;;12.86;39.57
30873;BME280;17579;42.690;2.586;2024-02-14T04:48:01;97817.53;;;12.81;39.41
30873;BME280;17579;42.690;2.586;2024-02-14T04:50:28;97814.31;;;12.78;39.40
30873;BME280;17579;42.690;2.586;2024-02-14T04:52:59;97814.91;;;12.72;39.58
30873;BME280;17579;42.690;2.586;2024-02-14T04:55:30;97814.91;;;12.72;39.58
30873;BME280;17579;42.690;2.586;2024-02-14T04:57:57;97809.16;;;12.76;39.91
30873;BME280;17579;42.690;2.586;2024-02-14T05:00:26;97809.97;;;12.77;39.59
30873;BME280;17579;42.690;2.586;2024-02-14T05:02:58;97816.28;;;12.76;39.72
30873;BME280;17579;42.690;2.586;2024-02-14T05:05:33;97816.63;;;12.63;39.67
30873;BME280;17579;42.690;2.586;2024-02-14T05:08:07;97809.78;;;12.60;40.06
30873;BME280;17579;42.690;2.586;2024-02-14T05:10:33;97814.63;;;12.65;40.28
30873;BME280;17579;42.690;2.586;2024-02-14T05:12:59;97819.78;;;12.67;40.10
30873;BME280;17579;42.690;2.586;2024-02-14T05:15:28;97812.53;;;12.69;40.23
30873;BME280;17579;42.690;2.586;2024-02-14T05:18:02;97817.16;;;12.67;40.06
30873;BME280;17579;42.690;2.586;2024-02-14T05:20:28;97811.25;;;12.73;40.26
30873;BME280;17579;42.690;2.586;2024-02-14T05:22:57;97808.47;;;12.74;40.28
30873;BME280;17579;42.690;2.586;2024-02-14T05:25:22;97805.38;;;12.79;40.62
30873;BME280;17579;42.690;2.586;2024-02-14T05:27:48;97811.38;;;12.81;40.19
30873;BME280;17579;42.690;2.586;2024-02-14T05:30:14;97812.22;;;12.81;40.41
30873;BME280;17579;42.690;2.586;2024-02-14T05:32:45;97807.75;;;12.82;40.51
30873;BME280;17579;42.690;2.586;2024-02-14T05:35:11;97805.75;;;12.84;40.53
30873;BME280;17579;42.690;2.586;2024-02-14T05:37:42;97801.31;;;12.85;40.54
30873;BME280;17579;42.690;2.586;2024-02-14T05:40:08;97799.19;;;12.88;40.54
30873;BME280;17579;42.690;2.586;2024-02-14T05:42:36;97801.97;;;12.87;40.48
30873;BME280;17579;42.690;2.586;2024-02-14T05:45:13;97805.19;;;12.90;40.16
30873;BME280;17579;42.690;2.586;2024-02-14T05:47:45;97805.47;;;12.87;40.46
30873;BME280;17579;42.690;2.586;2024-02-14T05:50:10;97805.06;;;12.92;40.33
30873;BME280;17579;42.690;2.586;2024-02-14T05:52:38;97804.19;;;12.91;40.52
30873;BME280;17579;42.690;2.586;2024-02-14T05:55:04;97812.16;;;12.91;40.59
30873;BME280;17579;42.690;2.586;2024-02-14T05:57:30;97814.66;;;12.93;40.44
30873;BME280;17579;42.690;2.586;2024-02-14T05:59:58;97816.50;;;12.92;40.27
30873;BME280;17579;42.690;2.586;2024-02-14T06:02:24;97820.97;;;12.92;40.38
30873;BME280;17579;42.690;2.586;2024-02-14T06:05:10;97819.16;;;12.92;40.27
30873;BME280;17579;42.690;2.586;2024-02-14T06:07:53;97820.41;;;12.88;40.23
30873;BME280;17579;42.690;2.586;2024-02-14T06:10:25;97822.38;;;12.96;40.11
30873;BME280;17579;42.690;2.586;2024-02-14T06:12:54;97821.50;;;12.95;40.05
30873;BME280;17579;42.690;2.586;2024-02-14T06:15:20;97823.03;;;12.98;40.06
30873;BME280;17579;42.690;2.586;2024-02-14T06:17:45;97828.06;;;13.01;39.99
30873;BME280;17579;42.690;2.586;2024-02-14T06:20:11;97828.06;;;13.01;40.12
30873;BME280;17579;42.690;2.586;2024-02-14T06:22:43;97823.59;;;13.02;39.91
30873;BME280;17579;42.690;2.586;2024-02-14T06:25:15;97823.59;;;13.02;39.90
30873;BME280;17579;42.690;2.586;2024-02-14T06:27:41;97818.16;;;13.03;39.68
30873;BME280;17579;42.690;2.586;2024-02-14T06:30:08;97812.69;;;13.05;39.75
30873;BME280;17579;42.690;2.586;2024-02-14T06:32:37;97806.50;;;13.04;39.86
30873;BME280;17579;42.690;2.586;2024-02-14T06:35:04;97811.00;;;13.04;39.80
30873;BME280;17579;42.690;2.586;2024-02-14T06:37:30;97813.50;;;13.05;39.87
30873;BME280;17579;42.690;2.586;2024-02-14T06:39:56;97816.00;;;13.07;39.86
30873;BME280;17579;42.690;2.586;2024-02-14T06:42:24;97813.50;;;13.05;39.56
30873;BME280;17579;42.690;2.586;2024-02-14T06:45:08;97819.94;;;13.03;39.70
30873;BME280;17579;42.690;2.586;2024-02-14T06:47:37;97825.97;;;13.05;39.85
30873;BME280;17579;42.690;2.586;2024-02-14T06:50:07;97830.25;;;13.06;39.70
30873;BME280;17579;42.690;2.586;2024-02-14T06:52:33;97839.75;;;13.08;39.82
30873;BME280;17579;42.690;2.586;2024-02-14T06:55:06;97839.25;;;13.05;39.58
30873;BME280;17579;42.690;2.586;2024-02-14T06:57:35;97841.91;;;13.05;39.94
30873;BME280;17579;42.690;2.586;2024-02-14T07:00:12;97848.31;;;13.02;40.12
30873;BME280;17579;42.690;2.586;2024-02-14T07:02:51;97851.50;;;13.06;39.69
30873;BME280;17579;42.690;2.586;2024-02-14T07:05:19;97846.06;;;13.07;39.67
30873;BME280;17579;42.690;2.586;2024-02-14T07:08:05;97851.25;;;13.09;39.74
30873;BME280;17579;42.690;2.586;2024-02-14T07:10:35;97852.06;;;13.09;39.49
30873;BME280;17579;42.690;2.586;2024-02-14T07:13:03;97848.28;;;13.12;39.91
30873;BME280;17579;42.690;2.586;2024-02-14T07:15:31;97854.28;;;13.14;39.66
30873;BME280;17579;42.690;2.586;2024-02-14T07:18:26;97854.56;;;13.11;39.78
30873;BME280;17579;42.690;2.586;2024-02-14T07:20:54;97863.19;;;13.23;39.64
30873;BME280;17579;42.690;2.586;2024-02-14T07:23:22;97864.56;;;13.27;39.68
30873;BME280;17579;42.690;2.586;2024-02-14T07:25:58;97868.06;;;13.27;39.67
30873;BME280;17579;42.690;2.586;2024-02-14T07:28:23;97879.22;;;13.31;39.46
30873;BME280;17579;42.690;2.586;2024-02-14T07:30:57;97873.91;;;13.31;39.87
30873;BME280;17579;42.690;2.586;2024-02-14T07:33:25;97872.53;;;13.37;39.67
30873;BME280;17579;42.690;2.586;2024-02-14T07:35:51;97870.13;;;13.43;39.70
30873;BME280;17579;42.690;2.586;2024-02-14T07:38:16;97872.19;;;13.49;39.56
30873;BME280;17579;42.690;2.586;2024-02-14T07:40:48;97865.91;;;13.50;39.61
30873;BME280;17579;42.690;2.586;2024-02-14T07:43:20;97885.56;;;13.58;39.97
30873;BME280;17579;42.690;2.586;2024-02-14T07:45:46;97889.59;;;13.62;39.90
30873;BME280;17579;42.690;2.586;2024-02-14T07:48:14;97892.66;;;13.67;39.98
30873;BME280;17579;42.690;2.586;2024-02-14T07:50:45;97893.03;;;13.72;39.64
30873;BME280;17579;42.690;2.586;2024-02-14T07:53:11;97895.25;;;13.77;39.69
30873;BME280;17579;42.690;2.586;2024-02-14T07:55:39;97894.63;;;13.83;39.75
30873;BME280;17579;42.690;2.586;2024-02-14T07:58:30;97900.06;;;13.91;39.46
30873;BME280;17579;42.690;2.586;2024-02-14T08:00:58;97891.16;;;14.00;39.45
30873;BME280;17579;42.690;2.586;2024-02-14T08:06:11;97895.78;;;14.16;38.86
30873;BME280;17579;42.690;2.586;2024-02-14T08:08:43;97901.34;;;14.23;39.03
30873;BME280;17579;42.690;2.586;2024-02-14T08:11:14;97908.97;;;14.36;38.67
30873;BME280;17579;42.690;2.586;2024-02-14T08:13:42;97910.31;;;14.40;38.66
30873;BME280;17579;42.690;2.586;2024-02-14T08:16:10;97911.38;;;14.47;38.38
30873;BME280;17579;42.690;2.586;2024-02-14T08:18:39;97916.63;;;14.57;38.24
30873;BME280;17579;42.690;2.586;2024-02-14T08:21:14;97914.41;;;14.70;38.12
30873;BME280;17579;42.690;2.586;2024-02-14T08:23:43;97913.63;;;14.78;38.11
30873;BME280;17579;42.690;2.586;2024-02-14T08:26:16;97915.06;;;14.90;37.81
30873;BME280;17579;42.690;2.586;2024-02-14T08:28:44;97907.75;;;14.93;37.69
30873;BME280;17579;42.690;2.586;2024-02-14T08:31:13;97901.81;;;14.99;37.89
30873;BME280;17579;42.690;2.586;2024-02-14T08:33:41;97920.63;;;15.05;37.72
30873;BME280;17579;42.690;2.586;2024-02-14T08:36:13;97904.72;;;15.14;37.70
30873;BME280;17579;42.690;2.586;2024-02-14T08:38:41;97909.25;;;15.21;37.61
30873;BME280;17579;42.690;2.586;2024-02-14T08:41:10;97912.31;;;15.35;37.39
30873;BME280;17579;42.690;2.586;2024-02-14T08:43:37;97916.22;;;15.49;37.03
30873;BME280;17579;42.690;2.586;2024-02-14T08:46:11;97916.06;;;15.58;37.25
30873;BME280;17579;42.690;2.586;2024-02-14T08:48:39;97905.28;;;15.68;36.92
30873;BME280;17579;42.690;2.586;2024-02-14T08:53:56;97914.88;;;15.79;36.67
30873;BME280;17579;42.690;2.586;2024-02-14T08:56:25;97909.69;;;15.86;36.21
30873;BME280;17579;42.690;2.586;2024-02-14T08:59:01;97915.56;;;15.89;36.22
30873;BME280;17579;42.690;2.586;2024-02-14T09:01:34;97916.06;;;15.93;36.06
30873;BME280;17579;42.690;2.586;2024-02-14T09:04:05;97914.41;;;16.00;35.77
30873;BME280;17579;42.690;2.586;2024-02-14T09:06:30;97925.09;;;16.08;35.97
30873;BME280;17579;42.690;2.586;2024-02-14T09:09:01;97922.63;;;16.15;35.43
30873;BME280;17579;42.690;2.586;2024-02-14T09:11:31;97917.13;;;16.25;35.64
30873;BME280;17579;42.690;2.586;2024-02-14T09:13:57;97920.31;;;16.37;35.26
30873;BME280;17579;42.690;2.586;2024-02-14T09:16:30;97910.47;;;16.45;34.64
30873;BME280;17579;42.690;2.586;2024-02-14T09:19:02;97913.63;;;16.49;35.34
30873;BME280;17579;42.690;2.586;2024-02-14T09:21:30;97913.13;;;16.62;35.63
30873;BME280;17579;42.690;2.586;2024-02-14T09:24:09;97915.81;;;16.70;35.55
30873;BME280;17579;42.690;2.586;2024-02-14T09:26:57;97908.09;;;16.84;35.07
30873;BME280;17579;42.690;2.586;2024-02-14T09:29:24;97905.13;;;16.95;35.28
30873;BME280;17579;42.690;2.586;2024-02-14T09:31:50;97912.13;;;17.04;34.96
30873;BME280;17579;42.690;2.586;2024-02-14T09:34:19;97911.25;;;17.20;35.14
30873;BME280;17579;42.690;2.586;2024-02-14T09:36:50;97903.69;;;17.32;35.15
30873;BME280;17579;42.690;2.586;2024-02-14T09:39:25;97904.16;;;17.44;35.08
30873;BME280;17579;42.690;2.586;2024-02-14T09:41:59;97906.16;;;17.50;35.54
30873;BME280;17579;42.690;2.586;2024-02-14T09:44:38;97906.44;;;17.63;34.57
30873;BME280;17579;42.690;2.586;2024-02-14T09:47:09;97918.75;;;17.73;34.62
30873;BME280;17579;42.690;2.586;2024-02-14T09:49:37;97914.38;;;17.80;34.95
30873;BME280;17579;42.690;2.586;2024-02-14T09:52:05;97910.16;;;17.86;34.33
30873;BME280;17579;42.690;2.586;2024-02-14T09:54:32;97905.97;;;17.91;34.32
30873;BME280;17579;42.690;2.586;2024-02-14T09:57:08;97898.59;;;18.02;34.36
30873;BME280;17579;42.690;2.586;2024-02-14T09:59:35;97903.31;;;18.14;34.05
30873;BME280;17579;42.690;2.586;2024-02-14T10:02:01;97907.31;;;18.18;34.30
30873;BME280;17579;42.690;2.586;2024-02-14T10:04:36;97900.78;;;18.21;34.24
30873;BME280;17579;42.690;2.586;2024-02-14T10:07:13;97903.69;;;18.34;33.78
30873;BME280;17579;42.690;2.586;2024-02-14T10:09:42;97902.81;;;18.42;34.06
30873;BME280;17579;42.690;2.586;2024-02-14T10:12:11;97906.19;;;18.59;33.17
30873;BME280;17579;42.690;2.586;2024-02-14T10:14:43;97896.78;;;18.63;33.20
30873;BME280;17579;42.690;2.586;2024-02-14T10:17:20;97898.56;;;18.71;33.14
30873;BME280;17579;42.690;2.586;2024-02-14T10:20:16;97905.97;;;18.84;32.82
30873;BME280;17579;42.690;2.586;2024-02-14T10:22:51;97905.09;;;18.92;32.68
30873;BME280;17579;42.690;2.586;2024-02-14T10:25:19;97910.50;;;19.07;32.38
30873;BME280;17579;42.690;2.586;2024-02-14T10:27:52;97906.97;;;19.21;32.07
30873;BME280;17579;42.690;2.586;2024-02-14T10:30:20;97895.69;;;19.26;32.12
30873;BME280;17579;42.690;2.586;2024-02-14T10:32:58;97898.19;;;19.27;32.25
30873;BME280;17579;42.690;2.586;2024-02-14T10:35:39;97905.41;;;19.42;32.49
30873;BME280;17579;42.690;2.586;2024-02-14T10:38:16;97901.06;;;19.55;32.33
30873;BME280;17579;42.690;2.586;2024-02-14T10:40:54;97902.88;;;19.55;32.25
30873;BME280;17579;42.690;2.586;2024-02-14T10:43:20;97898.72;;;19.67;31.92
30873;BME280;17579;42.690;2.586;2024-02-14T10:45:49;97899.34;;;19.69;32.55
30873;BME280;17579;42.690;2.586;2024-02-14T10:48:21;97893.25;;;19.76;32.79
30873;BME280;17579;42.690;2.586;2024-02-14T10:51:10;97897.59;;;19.77;32.76
30873;BME280;17579;42.690;2.586;2024-02-14T10:53:39;97899.09;;;19.79;33.73
30873;BME280;17579;42.690;2.586;2024-02-14T10:56:09;97894.72;;;19.78;33.20
30873;BME280;17579;42.690;2.586;2024-02-14T10:58:41;97890.66;;;19.82;32.80
30873;BME280;17579;42.690;2.586;2024-02-14T11:01:15;97903.91;;;19.84;33.29
30873;BME280;17579;42.690;2.586;2024-02-14T11:03:49;97889.66;;;19.83;33.45
30873;BME280;17579;42.690;2.586;2024-02-14T11:06:24;97886.09;;;19.98;33.25
30873;BME280;17579;42.690;2.586;2024-02-14T11:09:59;97886.75;;;20.00;34.32
30873;BME280;17579;42.690;2.586;2024-02-14T11:12:01;97881.44;;;20.06;34.22
30873;BME280;17579;42.690;2.586;2024-02-14T11:14:34;97879.22;;;20.10;33.59
30873;BME280;17579;42.690;2.586;2024-02-14T11:17:08;97874.94;;;20.16;33.51
30873;BME280;17579;42.690;2.586;2024-02-14T11:19:35;97872.50;;;20.21;33.49
30873;BME280;17579;42.690;2.586;2024-02-14T11:22:13;97871.91;;;20.25;33.80
30873;BME280;17579;42.690;2.586;2024-02-14T11:24:52;97863.72;;;20.34;33.14
30873;BME280;17579;42.690;2.586;2024-02-14T11:27:28;97864.00;;;20.39;33.57
30873;BME280;17579;42.690;2.586;2024-02-14T11:29:55;97849.28;;;20.35;32.83
30873;BME280;17579;42.690;2.586;2024-02-14T11:32:28;97846.59;;;20.35;33.09
30873;BME280;17579;42.690;2.586;2024-02-14T11:35:00;97846.47;;;20.43;33.15
30873;BME280;17579;42.690;2.586;2024-02-14T11:37:31;97850.28;;;20.55;32.92
30873;BME280;17579;42.690;2.586;2024-02-14T11:40:13;97834.16;;;20.55;32.97
30873;BME280;17579;42.690;2.586;2024-02-14T11:43:00;97833.13;;;20.56;32.63
30873;BME280;17579;42.690;2.586;2024-02-14T11:45:27;97826.09;;;20.55;32.95
30873;BME280;17579;42.690;2.586;2024-02-14T11:47:53;97823.59;;;20.54;32.67
30873;BME280;17579;42.690;2.586;2024-02-14T11:50:28;97820.50;;;20.57;33.04
30873;BME280;17579;42.690;2.586;2024-02-14T11:53:00;97811.69;;;20.63;32.41
30873;BME280;17579;42.690;2.586;2024-02-14T11:55:36;97813.31;;;20.57;32.71
30873;BME280;17579;42.690;2.586;2024-02-14T11:58:11;97808.16;;;20.63;32.47
30873;BME280;17579;42.690;2.586;2024-02-14T12:00:40;97803.69;;;20.70;32.44
30873;BME280;17579;42.690;2.586;2024-02-14T12:03:16;97795.47;;;20.78;32.25
30873;BME280;17579;42.690;2.586;2024-02-14T12:05:42;97796.09;;;20.80;32.02
30873;BME280;17579;42.690;2.586;2024-02-14T12:08:18;97789.47;;;20.76;31.93
30873;BME280;17579;42.690;2.586;2024-02-14T12:10:50;97789.91;;;20.80;31.75
30873;BME280;17579;42.690;2.586;2024-02-14T12:13:22;97790.44;;;20.68;31.94
30873;BME280;17579;42.690;2.586;2024-02-14T12:15:51;97779.94;;;20.73;31.41
30873;BME280;17579;42.690;2.586;2024-02-14T12:18:23;97779.34;;;20.78;31.82
30873;BME280;17579;42.690;2.586;2024-02-14T12:20:51;97775.25;;;20.82;31.62
30873;BME280;17579;42.690;2.586;2024-02-14T12:23:18;97770.25;;;20.79;31.89
30873;BME280;17579;42.690;2.586;2024-02-14T12:25:46;97766.53;;;20.80;31.56
30873;BME280;17579;42.690;2.586;2024-02-14T12:28:24;97764.91;;;20.86;31.72
30873;BME280;17579;42.690;2.586;2024-02-14T12:30:51;97772.16;;;20.85;31.64
30873;BME280;17579;42.690;2.586;2024-02-14T12:33:25;97762.19;;;20.79;31.44
30873;BME280;17579;42.690;2.586;2024-02-14T12:35:55;97757.84;;;20.78;31.76
30873;BME280;17579;42.690;2.586;2024-02-14T12:38:25;97755.88;;;20.93;31.67
30873;BME280;17579;42.690;2.586;2024-02-14T12:40:51;97755.66;;;20.95;31.23
30873;BME280;17579;42.690;2.586;2024-02-14T12:43:23;97754.81;;;20.88;31.43
30873;BME280;17579;42.690;2.586;2024-02-14T12:46:00;97747.91;;;20.79;31.75
30873;BME280;17579;42.690;2.586;2024-02-14T12:48:26;97745.03;;;20.80;32.13
30873;BME280;17579;42.690;2.586;2024-02-14T12:51:00;97740.84;;;20.71;32.20
30873;BME280;17579;42.690;2.586;2024-02-14T12:53:30;97746.34;;;20.63;32.12
30873;BME280;17579;42.690;2.586;2024-02-14T12:56:05;97746.53;;;20.61;32.20
30873;BME280;17579;42.690;2.586;2024-02-14T12:58:35;97748.22;;;20.62;33.26
30873;BME280;17579;42.690;2.586;2024-02-14T13:01:12;97739.75;;;20.65;34.22
30873;BME280;17579;42.690;2.586;2024-02-14T13:03:39;97732.28;;;20.60;34.03
30873;BME280;17579;42.690;2.586;2024-02-14T13:06:07;97737.66;;;20.60;34.34
30873;BME280;17579;42.690;2.586;2024-02-14T13:08:44;97738.25;;;20.56;35.17
30873;BME280;17579;42.690;2.586;2024-02-14T13:11:18;97733.44;;;20.45;35.33
30873;BME280;17579;42.690;2.586;2024-02-14T13:13:54;97723.22;;;20.33;35.43
30873;BME280;17579;42.690;2.586;2024-02-14T13:16:19;97726.84;;;20.19;36.09
30873;BME280;17579;42.690;2.586;2024-02-14T13:18:54;97730.03;;;20.07;36.88
30873;BME280;17579;42.690;2.586;2024-02-14T13:21:29;97729.47;;;20.12;36.97
30873;BME280;17579;42.690;2.586;2024-02-14T13:24:09;97731.66;;;20.02;36.82
30873;BME280;17579;42.690;2.586;2024-02-14T13:26:38;97734.91;;;19.97;37.52